Time;durP1;ratioP1;P1;durP2;ratioP2;P2;SDS_P1;SDS_P2;PMS_P1;PMS_P2;Temp;Humidity;BMP_temperature;BMP_pressure;BME280_temperature;BME280_humidity;BME280_pressure;Samples;Min_cycle;Max_cycle;Signal;HPM_P1;HPM_P2
2021/08/17 00:00:17;;;;;;;16.70;10.95;;;;;;;;;;5089466;28;20056;-59
2021/08/17 00:03:01;;;;;;;19.98;10.35;;;;;;;;;;5092392;28;20113;-60
2021/08/17 00:05:28;;;;;;;21.88;11.50;;;;;;;;;;5096428;28;20075;-60
2021/08/17 00:07:55;;;;;;;19.23;11.05;;;;;;;;;;5093139;28;20043;-60
2021/08/17 00:10:22;;;;;;;17.70;10.07;;;;;;;;;;5093608;28;20554;-60
2021/08/17 00:12:48;;;;;;;15.80;10.00;;;;;;;;;;5077079;28;20081;-60
2021/08/17 00:15:15;;;;;;;20.40;10.07;;;;;;;;;;5089965;28;20499;-60
2021/08/17 00:17:41;;;;;;;17.45;9.80;;;;;;;;;;5096110;28;20048;-60
2021/08/17 00:20:08;;;;;;;17.35;9.20;;;;;;;;;;5093142;28;20106;-59
2021/08/17 00:22:35;;;;;;;14.40;8.73;;;;;;;;;;5095088;28;20517;-60
2021/08/17 00:25:02;;;;;;;17.90;10.45;;;;;;;;;;5092986;28;20043;-60
2021/08/17 00:27:28;;;;;;;15.70;9.07;;;;;;;;;;5089143;28;20478;-60
2021/08/17 00:29:54;;;;;;;17.80;9.90;;;;;;;;;;5094865;28;20044;-59
2021/08/17 00:32:20;;;;;;;13.77;9.07;;;;;;;;;;5095113;28;20051;-60
2021/08/17 00:34:47;;;;;;;14.73;9.10;;;;;;;;;;5093299;28;20063;-59
2021/08/17 00:37:14;;;;;;;17.65;9.18;;;;;;;;;;5092684;28;20126;-59
2021/08/17 00:39:40;;;;;;;12.65;8.45;;;;;;;;;;5091168;28;20119;-60
2021/08/17 00:42:08;;;;;;;15.85;8.52;;;;;;;;;;5091878;28;20052;-60
2021/08/17 00:44:34;;;;;;;13.57;8.85;;;;;;;;;;5094845;28;20453;-60
2021/08/17 00:47:01;;;;;;;20.20;7.97;;;;;;;;;;5092658;28;20066;-60
2021/08/17 00:49:28;;;;;;;13.65;7.32;;;;;;;;;;5077638;28;20515;-60
2021/08/17 00:51:55;;;;;;;16.38;8.82;;;;;;;;;;5093249;28;20126;-60
2021/08/17 00:54:21;;;;;;;14.57;9.35;;;;;;;;;;5088130;28;20040;-60
2021/08/17 00:56:48;;;;;;;12.63;9.40;;;;;;;;;;5096592;28;20106;-60
2021/08/17 00:59:15;;;;;;;13.95;8.63;;;;;;;;;;5093299;28;20486;-60
2021/08/17 01:01:42;;;;;;;15.55;9.68;;;;;;;;;;5093163;28;20037;-60
2021/08/17 01:04:09;;;;;;;14.98;8.55;;;;;;;;;;5093160;28;20046;-60
2021/08/17 01:06:35;;;;;;;27.10;8.93;;;;;;;;;;5090855;28;20119;-60
2021/08/17 01:09:02;;;;;;;13.50;8.02;;;;;;;;;;5093167;28;20653;-59
2021/08/17 01:11:28;;;;;;;15.98;8.40;;;;;;;;;;5096140;28;20091;-60
2021/08/17 01:13:55;;;;;;;12.50;8.68;;;;;;;;;;5093002;28;20044;-60
2021/08/17 01:16:21;;;;;;;15.30;8.80;;;;;;;;;;5092865;28;20044;-60
2021/08/17 01:18:48;;;;;;;13.93;8.32;;;;;;;;;;5092430;28;20067;-60
2021/08/17 01:21:15;;;;;;;12.65;8.73;;;;;;;;;;5075742;28;20071;-60
2021/08/17 01:23:42;;;;;;;13.32;7.95;;;;;;;;;;5099883;28;20043;-60
2021/08/17 01:26:09;;;;;;;13.32;7.68;;;;;;;;;;5096528;28;20067;-60
2021/08/17 01:28:35;;;;;;;11.55;8.25;;;;;;;;;;5096653;28;20491;-59
2021/08/17 01:31:03;;;;;;;15.07;7.95;;;;;;;;;;5096637;28;20050;-59
2021/08/17 01:33:29;;;;;;;12.60;8.35;;;;;;;;;;5093117;28;20049;-59
2021/08/17 01:35:56;;;;;;;13.75;8.32;;;;;;;;;;5098264;28;20063;-58
2021/08/17 01:38:23;;;;;;;17.27;8.25;;;;;;;;;;5098923;28;20040;-58
2021/08/17 01:40:49;;;;;;;13.57;8.15;;;;;;;;;;5096253;28;20076;-59
2021/08/17 01:43:16;;;;;;;13.30;7.55;;;;;;;;;;5096237;28;20048;-59
2021/08/17 01:45:43;;;;;;;11.95;8.07;;;;;;;;;;5095041;28;20555;-59
2021/08/17 01:48:11;;;;;;;12.35;7.75;;;;;;;;;;5094432;28;20511;-59
2021/08/17 01:50:37;;;;;;;12.27;8.30;;;;;;;;;;5096222;28;20044;-59
2021/08/17 01:53:04;;;;;;;13.55;7.03;;;;;;;;;;5096091;28;20048;-59
2021/08/17 01:55:31;;;;;;;10.82;5.57;;;;;;;;;;5095995;28;20073;-59
2021/08/17 01:57:58;;;;;;;0.38;0.30;;;;;;;;;;5096237;28;20047;-58
2021/08/17 02:00:25;;;;;;;0.40;0.30;;;;;;;;;;5092343;28;20064;-58
2021/08/17 02:02:52;;;;;;;1.27;0.85;;;;;;;;;;5098813;28;20063;-59
2021/08/17 02:05:20;;;;;;;1.35;1.17;;;;;;;;;;5096407;28;20044;-59
2021/08/17 02:07:49;;;;;;;0.20;0.20;;;;;;;;;;5096068;28;20040;-59
2021/08/17 02:10:15;;;;;;;0.20;0.20;;;;;;;;;;5095689;28;20083;-59
2021/08/17 02:12:42;;;;;;;0.40;0.32;;;;;;;;;;5073551;28;20439;-60
2021/08/17 02:15:08;;;;;;;1.15;1.05;;;;;;;;;;5094728;28;20048;-60
2021/08/17 02:17:35;;;;;;;0.30;0.30;;;;;;;;;;5097767;28;20075;-60
2021/08/17 02:20:01;;;;;;;0.73;0.73;;;;;;;;;;5093805;28;20067;-59
2021/08/17 02:22:27;;;;;;;0.28;0.28;;;;;;;;;;5095470;28;20075;-59
2021/08/17 02:24:54;;;;;;;0.40;0.30;;;;;;;;;;5095606;28;20052;-60
2021/08/17 02:27:20;;;;;;;0.45;0.40;;;;;;;;;;5092693;28;20094;-59
2021/08/17 02:29:46;;;;;;;0.43;0.43;;;;;;;;;;5099348;28;20044;-60
2021/08/17 02:32:12;;;;;;;0.38;0.28;;;;;;;;;;5094523;28;20447;-59
2021/08/17 02:34:39;;;;;;;0.57;0.57;;;;;;;;;;5095519;28;20141;-59
2021/08/17 02:37:05;;;;;;;0.32;0.30;;;;;;;;;;5095327;28;20119;-59
2021/08/17 02:39:31;;;;;;;0.20;0.20;;;;;;;;;;5092268;28;20116;-59
2021/08/17 02:41:58;;;;;;;0.25;0.20;;;;;;;;;;5078324;28;20126;-60
2021/08/17 02:44:24;;;;;;;0.20;0.20;;;;;;;;;;5096429;28;20052;-59
2021/08/17 02:46:52;;;;;;;0.30;0.20;;;;;;;;;;5095207;28;20126;-59
2021/08/17 02:49:18;;;;;;;0.40;0.40;;;;;;;;;;5095301;28;20392;-60
2021/08/17 02:51:45;;;;;;;0.50;0.50;;;;;;;;;;5093762;28;20085;-60
2021/08/17 02:54:11;;;;;;;0.20;0.20;;;;;;;;;;5092935;28;20542;-60
2021/08/17 02:56:37;;;;;;;0.40;0.32;;;;;;;;;;5096668;28;20542;-60
2021/08/17 02:59:03;;;;;;;0.30;0.20;;;;;;;;;;5095035;28;20036;-60
2021/08/17 03:01:30;;;;;;;0.40;0.32;;;;;;;;;;5094912;28;20040;-59
2021/08/17 03:03:56;;;;;;;0.82;0.82;;;;;;;;;;5094913;28;20050;-60
2021/08/17 03:06:22;;;;;;;0.40;0.40;;;;;;;;;;5091089;28;20036;-60
2021/08/17 03:08:49;;;;;;;0.30;0.28;;;;;;;;;;5098367;28;20067;-59
2021/08/17 03:11:15;;;;;;;7.15;2.03;;;;;;;;;;5094760;28;20048;-59
2021/08/17 03:13:41;;;;;;;0.80;0.70;;;;;;;;;;5094585;28;20498;-60
2021/08/17 03:16:08;;;;;;;0.30;0.20;;;;;;;;;;5093231;28;20078;-59
2021/08/17 03:18:34;;;;;;;0.45;0.43;;;;;;;;;;5091455;28;20403;-59
2021/08/17 03:21:00;;;;;;;0.20;0.20;;;;;;;;;;5090111;28;20057;-60
2021/08/17 03:23:27;;;;;;;0.35;0.25;;;;;;;;;;5095602;28;20048;-60
2021/08/17 03:25:56;;;;;;;0.40;0.30;;;;;;;;;;5094029;28;20073;-60
2021/08/17 03:28:22;;;;;;;0.20;0.20;;;;;;;;;;5093515;28;20048;-59
2021/08/17 03:30:49;;;;;;;0.40;0.40;;;;;;;;;;5092826;28;20127;-60
2021/08/17 03:33:15;;;;;;;0.50;0.47;;;;;;;;;;5090613;28;20422;-60
2021/08/17 03:35:42;;;;;;;0.40;0.40;;;;;;;;;;5096833;28;20443;-60
2021/08/17 03:38:08;;;;;;;1.20;1.13;;;;;;;;;;5094132;28;20075;-60
2021/08/17 03:40:34;;;;;;;0.95;0.85;;;;;;;;;;5096338;28;20047;-61
2021/08/17 03:43:00;;;;;;;0.30;0.22;;;;;;;;;;5095491;28;20047;-59
2021/08/17 03:45:27;;;;;;;0.30;0.20;;;;;;;;;;5091918;28;20052;-60
2021/08/17 03:47:53;;;;;;;0.30;0.20;;;;;;;;;;5096627;28;20093;-60
2021/08/17 03:50:20;;;;;;;0.30;0.30;;;;;;;;;;5094249;28;20523;-60
2021/08/17 03:52:46;;;;;;;0.30;0.20;;;;;;;;;;5098537;28;20111;-60
2021/08/17 03:55:13;;;;;;;0.30;0.30;;;;;;;;;;5090781;28;20055;-60
2021/08/17 03:57:39;;;;;;;0.30;0.20;;;;;;;;;;5092021;28;20044;-60
2021/08/17 04:00:08;;;;;;;0.60;0.60;;;;;;;;;;5093350;28;20157;-60
2021/08/17 04:02:38;;;;;;;0.47;0.47;;;;;;;;;;5093363;28;20048;-60
2021/08/17 04:05:06;;;;;;;0.20;0.20;;;;;;;;;;5093601;28;20044;-60
2021/08/17 04:07:32;;;;;;;0.30;0.20;;;;;;;;;;5087978;28;20509;-60
2021/08/17 04:09:58;;;;;;;0.30;0.20;;;;;;;;;;5088445;28;20048;-60
2021/08/17 04:12:25;;;;;;;0.40;0.40;;;;;;;;;;5088085;28;20051;-60
2021/08/17 04:14:51;;;;;;;0.20;0.20;;;;;;;;;;5091740;28;20075;-61
2021/08/17 04:17:17;;;;;;;0.22;0.20;;;;;;;;;;5089475;28;20078;-60
2021/08/17 04:19:44;;;;;;;0.40;0.30;;;;;;;;;;5089713;28;20047;-61
2021/08/17 04:22:10;;;;;;;0.30;0.20;;;;;;;;;;5088234;28;20044;-60
2021/08/17 04:24:37;;;;;;;0.30;0.30;;;;;;;;;;5078925;28;20040;-60
2021/08/17 04:27:03;;;;;;;0.30;0.25;;;;;;;;;;5079247;28;20399;-61
2021/08/17 04:29:30;;;;;;;0.52;0.52;;;;;;;;;;5085074;28;20070;-61
2021/08/17 04:31:56;;;;;;;0.30;0.20;;;;;;;;;;5086622;28;20495;-60
2021/08/17 04:34:23;;;;;;;0.20;0.20;;;;;;;;;;5088439;28;20069;-61
2021/08/17 04:36:50;;;;;;;0.40;0.30;;;;;;;;;;5090457;28;20131;-61
2021/08/17 04:39:16;;;;;;;0.30;0.20;;;;;;;;;;5061674;28;20542;-60
2021/08/17 04:41:43;;;;;;;0.30;0.30;;;;;;;;;;5081322;28;20119;-61
2021/08/17 04:44:09;;;;;;;0.30;0.30;;;;;;;;;;5067528;28;20068;-61
2021/08/17 04:46:35;;;;;;;0.30;0.20;;;;;;;;;;5087281;28;20067;-61
2021/08/17 04:49:02;;;;;;;0.30;0.30;;;;;;;;;;5086037;28;20117;-61
2021/08/17 04:51:28;;;;;;;0.35;0.30;;;;;;;;;;5088601;28;20048;-60
2021/08/17 04:53:55;;;;;;;0.50;0.43;;;;;;;;;;5070823;28;20406;-59
2021/08/17 04:56:21;;;;;;;0.30;0.20;;;;;;;;;;5086332;28;20410;-60
2021/08/17 04:58:48;;;;;;;0.30;0.30;;;;;;;;;;5088853;28;20158;-61
2021/08/17 05:01:14;;;;;;;0.70;0.70;;;;;;;;;;5092824;28;20050;-61
2021/08/17 05:03:40;;;;;;;0.68;0.68;;;;;;;;;;5088346;28;20402;-59
2021/08/17 05:06:06;;;;;;;0.30;0.30;;;;;;;;;;5090441;28;20074;-61
2021/08/17 05:08:33;;;;;;;0.52;0.52;;;;;;;;;;5090569;28;20068;-61
2021/08/17 05:10:59;;;;;;;0.70;0.57;;;;;;;;;;5086466;28;20094;-60
2021/08/17 05:13:25;;;;;;;0.40;0.30;;;;;;;;;;5088547;28;20071;-60
2021/08/17 05:15:51;;;;;;;0.38;0.30;;;;;;;;;;5095017;28;20047;-60
2021/08/17 05:18:18;;;;;;;0.40;0.30;;;;;;;;;;5074514;28;20162;-60
2021/08/17 05:20:44;;;;;;;0.20;0.20;;;;;;;;;;5100073;28;20044;-60
2021/08/17 05:23:10;;;;;;;0.63;0.63;;;;;;;;;;5096272;28;20123;-60
2021/08/17 05:25:37;;;;;;;0.30;0.20;;;;;;;;;;5097950;28;20040;-60
2021/08/17 05:28:03;;;;;;;3.83;0.95;;;;;;;;;;5096324;28;20040;-59
2021/08/17 05:30:29;;;;;;;0.30;0.30;;;;;;;;;;5093721;28;20036;-60
2021/08/17 05:32:56;;;;;;;0.40;0.30;;;;;;;;;;5095691;28;20058;-60
2021/08/17 05:35:22;;;;;;;0.30;0.30;;;;;;;;;;5093107;28;20068;-60
2021/08/17 05:37:48;;;;;;;0.28;0.22;;;;;;;;;;5092436;28;20042;-60
2021/08/17 05:40:15;;;;;;;0.55;0.50;;;;;;;;;;5091885;28;20143;-60
2021/08/17 05:42:41;;;;;;;0.30;0.30;;;;;;;;;;5091930;28;20089;-60
2021/08/17 05:45:08;;;;;;;0.30;0.30;;;;;;;;;;5075757;28;20531;-60
2021/08/17 05:47:34;;;;;;;0.55;0.52;;;;;;;;;;5097559;28;20758;-61
2021/08/17 05:50:01;;;;;;;0.30;0.30;;;;;;;;;;5095823;28;20044;-60
2021/08/17 05:52:29;;;;;;;0.40;0.30;;;;;;;;;;5095830;28;20043;-61
2021/08/17 05:54:55;;;;;;;0.40;0.30;;;;;;;;;;5096005;28;20047;-60
2021/08/17 05:57:21;;;;;;;0.30;0.30;;;;;;;;;;5091323;28;20498;-60
2021/08/17 05:59:47;;;;;;;0.30;0.20;;;;;;;;;;5106694;28;20127;-60
2021/08/17 06:02:14;;;;;;;0.30;0.30;;;;;;;;;;5095842;28;20119;-60
2021/08/17 06:04:40;;;;;;;0.30;0.30;;;;;;;;;;5095444;28;20044;-60
2021/08/17 06:07:06;;;;;;;0.40;0.30;;;;;;;;;;5095386;28;20119;-60
2021/08/17 06:09:34;;;;;;;0.80;0.57;;;;;;;;;;5088160;28;20044;-59
2021/08/17 06:12:01;;;;;;;0.30;0.30;;;;;;;;;;5086666;28;20465;-60
2021/08/17 06:14:27;;;;;;;0.40;0.30;;;;;;;;;;5088758;28;20085;-61
2021/08/17 06:16:54;;;;;;;0.30;0.30;;;;;;;;;;5090911;28;20445;-59
2021/08/17 06:19:20;;;;;;;0.40;0.30;;;;;;;;;;5092546;28;20507;-61
2021/08/17 06:21:47;;;;;;;0.30;0.30;;;;;;;;;;5091756;28;20040;-60
2021/08/17 06:24:13;;;;;;;0.30;0.30;;;;;;;;;;5091145;28;20060;-60
2021/08/17 06:26:39;;;;;;;0.30;0.30;;;;;;;;;;5085561;28;20075;-62
2021/08/17 06:29:06;;;;;;;0.30;0.30;;;;;;;;;;5085603;28;20044;-61
2021/08/17 06:31:32;;;;;;;0.30;0.30;;;;;;;;;;5087728;28;20044;-62
2021/08/17 06:34:00;;;;;;;0.30;0.30;;;;;;;;;;5084551;28;20095;-62
2021/08/17 06:36:27;;;;;;;0.40;0.40;;;;;;;;;;5090462;28;20140;-61
2021/08/17 06:38:53;;;;;;;0.30;0.30;;;;;;;;;;5093330;28;20101;-61
2021/08/17 06:41:20;;;;;;;0.30;0.30;;;;;;;;;;5089665;28;20077;-61
2021/08/17 06:43:46;;;;;;;0.30;0.30;;;;;;;;;;5089604;28;20047;-61
2021/08/17 06:46:12;;;;;;;1.25;1.10;;;;;;;;;;5089027;28;20415;-61
2021/08/17 06:48:39;;;;;;;0.40;0.40;;;;;;;;;;5090203;28;20072;-61
2021/08/17 06:51:05;;;;;;;0.40;0.30;;;;;;;;;;5083072;28;20041;-61
2021/08/17 06:53:31;;;;;;;0.30;0.20;;;;;;;;;;5090334;28;20101;-60
2021/08/17 06:55:57;;;;;;;0.40;0.32;;;;;;;;;;5085394;28;20074;-61
2021/08/17 06:58:24;;;;;;;0.30;0.30;;;;;;;;;;5087232;28;20131;-61
2021/08/17 07:00:50;;;;;;;0.40;0.30;;;;;;;;;;5089447;28;20069;-60
2021/08/17 07:03:16;;;;;;;0.30;0.20;;;;;;;;;;5088258;28;20408;-61
2021/08/17 07:05:45;;;;;;;0.30;0.20;;;;;;;;;;5091896;28;20047;-60
2021/08/17 07:08:12;;;;;;;0.60;0.60;;;;;;;;;;5086614;28;20044;-61
2021/08/17 07:10:39;;;;;;;3.92;2.53;;;;;;;;;;5078662;28;20059;-60
2021/08/17 07:13:05;;;;;;;0.30;0.30;;;;;;;;;;5076812;28;20032;-60
2021/08/17 07:15:31;;;;;;;0.50;0.50;;;;;;;;;;5074252;28;20083;-57
2021/08/17 07:17:58;;;;;;;0.40;0.40;;;;;;;;;;5080085;28;20059;-60
2021/08/17 07:20:24;;;;;;;0.50;0.50;;;;;;;;;;5086262;28;20040;-61
2021/08/17 07:22:51;;;;;;;0.65;0.65;;;;;;;;;;5090546;28;20043;-60
2021/08/17 07:25:17;;;;;;;0.30;0.30;;;;;;;;;;5086869;28;20068;-60
2021/08/17 07:27:44;;;;;;;0.38;0.38;;;;;;;;;;5076236;28;20128;-62
2021/08/17 07:30:12;;;;;;;0.30;0.30;;;;;;;;;;5079779;28;20048;-62
2021/08/17 07:32:39;;;;;;;0.40;0.30;;;;;;;;;;5087537;28;20079;-62
2021/08/17 07:35:06;;;;;;;0.30;0.30;;;;;;;;;;5069704;28;20492;-60
2021/08/17 07:37:33;;;;;;;0.55;0.47;;;;;;;;;;5088701;28;20040;-62
2021/08/17 07:39:59;;;;;;;0.68;0.68;;;;;;;;;;5087719;28;20089;-61
2021/08/17 07:42:25;;;;;;;0.30;0.20;;;;;;;;;;5077147;28;20075;-62
2021/08/17 07:44:51;;;;;;;0.68;0.68;;;;;;;;;;5080335;28;20128;-62
2021/08/17 07:47:18;;;;;;;0.30;0.30;;;;;;;;;;5082211;28;20083;-59
2021/08/17 07:49:44;;;;;;;0.70;0.70;;;;;;;;;;5082459;28;20042;-62
2021/08/17 07:52:10;;;;;;;0.50;0.45;;;;;;;;;;5061049;28;20044;-63
2021/08/17 07:54:37;;;;;;;0.40;0.30;;;;;;;;;;5076656;28;20072;-62
2021/08/17 07:57:04;;;;;;;0.30;0.20;;;;;;;;;;5090505;28;20122;-62
2021/08/17 07:59:30;;;;;;;0.30;0.20;;;;;;;;;;5081021;28;20487;-62
2021/08/17 08:01:57;;;;;;;0.60;0.47;;;;;;;;;;5084972;28;20044;-62
2021/08/17 08:04:23;;;;;;;0.30;0.20;;;;;;;;;;5085205;28;20093;-61
2021/08/17 08:06:50;;;;;;;0.70;0.65;;;;;;;;;;5089006;28;20113;-62
2021/08/17 08:09:16;;;;;;;0.30;0.20;;;;;;;;;;5088781;28;20044;-62
2021/08/17 08:11:42;;;;;;;0.30;0.20;;;;;;;;;;5090389;28;20052;-61
2021/08/17 08:14:09;;;;;;;0.30;0.30;;;;;;;;;;5088604;28;20044;-61
2021/08/17 08:16:35;;;;;;;0.30;0.20;;;;;;;;;;5086073;28;20108;-62
2021/08/17 08:19:02;;;;;;;0.30;0.20;;;;;;;;;;5078014;28;20047;-64
2021/08/17 08:21:29;;;;;;;0.30;0.20;;;;;;;;;;5089424;28;20060;-63
2021/08/17 08:23:55;;;;;;;0.30;0.30;;;;;;;;;;5095339;28;20054;-63
2021/08/17 08:26:21;;;;;;;0.40;0.40;;;;;;;;;;5094247;28;20057;-60
2021/08/17 08:28:48;;;;;;;0.30;0.30;;;;;;;;;;5092508;28;20049;-63
2021/08/17 08:31:14;;;;;;;0.32;0.30;;;;;;;;;;5093062;28;20138;-63
2021/08/17 08:33:40;;;;;;;0.30;0.30;;;;;;;;;;5074620;28;20127;-64
2021/08/17 08:36:09;;;;;;;0.50;0.40;;;;;;;;;;5093349;28;20122;-63
2021/08/17 08:38:36;;;;;;;0.30;0.20;;;;;;;;;;5095301;28;20136;-63
2021/08/17 08:41:03;;;;;;;0.30;0.30;;;;;;;;;;5092938;28;20048;-63
2021/08/17 08:43:29;;;;;;;0.45;0.45;;;;;;;;;;5093044;28;20063;-63
2021/08/17 08:45:56;;;;;;;0.30;0.30;;;;;;;;;;5096047;28;20153;-63
2021/08/17 08:48:23;;;;;;;5.03;2.42;;;;;;;;;;5091878;28;20092;-63
2021/08/17 08:50:50;;;;;;;0.40;0.32;;;;;;;;;;5104303;28;20494;-63
2021/08/17 08:53:16;;;;;;;0.30;0.28;;;;;;;;;;5096026;28;20048;-63
2021/08/17 08:55:46;;;;;;;0.50;0.45;;;;;;;;;;5095936;28;20047;-63
2021/08/17 08:58:12;;;;;;;0.30;0.30;;;;;;;;;;5087245;28;20515;-62
2021/08/17 09:00:39;;;;;;;1.08;0.82;;;;;;;;;;5091975;28;20067;-62
2021/08/17 09:03:05;;;;;;;0.57;0.52;;;;;;;;;;5091886;28;20090;-62
2021/08/17 09:05:31;;;;;;;0.30;0.30;;;;;;;;;;5090713;28;20105;-62
2021/08/17 09:08:03;;;;;;;0.30;0.30;;;;;;;;;;5090732;28;20118;-63
2021/08/17 09:10:29;;;;;;;0.57;0.57;;;;;;;;;;5089915;28;20383;-63
2021/08/17 09:12:59;;;;;;;0.30;0.30;;;;;;;;;;5091096;28;20569;-62
2021/08/17 09:15:30;;;;;;;0.40;0.40;;;;;;;;;;5091591;28;20072;-63
2021/08/17 09:18:06;;;;;;;0.40;0.40;;;;;;;;;;5090365;28;20510;-62
2021/08/17 09:20:34;;;;;;;0.30;0.20;;;;;;;;;;5092007;28;20082;-62
2021/08/17 09:23:18;;;;;;;0.50;0.45;;;;;;;;;;5091142;28;20048;-62
2021/08/17 09:25:45;;;;;;;0.30;0.30;;;;;;;;;;5091571;28;20064;-62
2021/08/17 09:28:26;;;;;;;0.50;0.40;;;;;;;;;;5091125;28;20051;-62
2021/08/17 09:30:53;;;;;;;0.30;0.20;;;;;;;;;;5080934;28;20044;-60
2021/08/17 09:33:19;;;;;;;0.50;0.43;;;;;;;;;;5091143;28;20119;-62
2021/08/17 09:35:45;;;;;;;0.32;0.30;;;;;;;;;;5092365;28;20380;-61
2021/08/17 09:38:15;;;;;;;0.30;0.30;;;;;;;;;;5091178;28;20083;-61
2021/08/17 09:40:42;;;;;;;0.30;0.30;;;;;;;;;;5092446;28;20462;-61
2021/08/17 09:43:19;;;;;;;0.30;0.30;;;;;;;;;;5094947;28;20075;-63
2021/08/17 09:45:46;;;;;;;0.30;0.30;;;;;;;;;;5091815;28;20071;-63
2021/08/17 09:48:13;;;;;;;0.30;0.20;;;;;;;;;;5093587;28;20044;-63
2021/08/17 09:50:41;;;;;;;0.30;0.20;;;;;;;;;;5095383;28;20075;-62
2021/08/17 09:53:15;;;;;;;0.30;0.30;;;;;;;;;;5094473;28;20435;-62
2021/08/17 09:55:43;;;;;;;0.95;0.70;;;;;;;;;;5094606;28;20123;-63
2021/08/17 09:58:30;;;;;;;0.30;0.30;;;;;;;;;;5094297;28;20047;-62
2021/08/17 10:00:58;;;;;;;3.22;2.20;;;;;;;;;;5094169;28;20388;-63
2021/08/17 10:03:26;;;;;;;4.13;2.30;;;;;;;;;;5094760;28;20079;-61
2021/08/17 10:05:52;;;;;;;4.22;2.53;;;;;;;;;;5095426;28;20495;-62
2021/08/17 10:08:18;;;;;;;6.20;2.47;;;;;;;;;;5094567;28;20127;-62
2021/08/17 10:10:46;;;;;;;5.85;2.30;;;;;;;;;;5094276;28;20426;-63
2021/08/17 10:13:13;;;;;;;10.27;2.97;;;;;;;;;;5094192;28;20046;-61
2021/08/17 10:15:41;;;;;;;4.35;2.33;;;;;;;;;;5081031;28;20048;-63
2021/08/17 10:18:08;;;;;;;7.47;2.45;;;;;;;;;;5094329;28;20511;-63
2021/08/17 10:20:35;;;;;;;4.22;2.40;;;;;;;;;;5094893;28;20074;-63
2021/08/17 10:23:01;;;;;;;3.80;2.97;;;;;;;;;;5093940;28;20494;-62
2021/08/17 10:25:41;;;;;;;5.55;2.80;;;;;;;;;;5094176;28;20059;-61
2021/08/17 10:28:22;;;;;;;18.10;2.97;;;;;;;;;;5094017;28;20121;-61
2021/08/17 10:30:49;;;;;;;7.75;3.17;;;;;;;;;;5093298;28;20115;-62
2021/08/17 10:33:35;;;;;;;4.82;2.90;;;;;;;;;;5094006;28;20043;-62
2021/08/17 10:36:01;;;;;;;6.75;2.88;;;;;;;;;;5093771;28;20617;-61
2021/08/17 10:38:27;;;;;;;7.47;3.25;;;;;;;;;;5094567;28;20165;-61
2021/08/17 10:40:54;;;;;;;7.50;3.00;;;;;;;;;;5093568;28;20043;-61
2021/08/17 10:43:29;;;;;;;3.83;2.78;;;;;;;;;;5093623;28;20056;-60
2021/08/17 10:46:00;;;;;;;4.88;3.05;;;;;;;;;;5076097;28;20056;-61
2021/08/17 10:51:23;;;;;;;6.47;3.38;;;;;;;;;;5093129;28;20055;-61
2021/08/17 10:53:49;;;;;;;3.20;2.40;;;;;;;;;;5089952;28;20086;-61
2021/08/17 10:56:18;;;;;;;7.30;3.05;;;;;;;;;;5093614;28;20483;-58
2021/08/17 10:58:49;;;;;;;5.40;3.05;;;;;;;;;;5093529;28;20088;-58
2021/08/17 11:01:30;;;;;;;4.72;3.05;;;;;;;;;;5093404;28;20087;-62
2021/08/17 11:03:57;;;;;;;5.63;3.50;;;;;;;;;;5093473;28;20043;-62
2021/08/17 11:06:36;;;;;;;5.65;3.50;;;;;;;;;;5093483;28;20044;-62
2021/08/17 11:09:04;;;;;;;5.75;3.72;;;;;;;;;;5093500;28;20056;-61
2021/08/17 11:11:30;;;;;;;5.05;3.15;;;;;;;;;;5093559;28;20079;-61
2021/08/17 11:14:00;;;;;;;5.65;3.30;;;;;;;;;;5093106;28;20039;-61
2021/08/17 11:16:26;;;;;;;5.15;3.00;;;;;;;;;;5093193;28;20059;-61
2021/08/17 11:18:59;;;;;;;6.90;3.60;;;;;;;;;;5093219;28;20513;-61
2021/08/17 11:21:29;;;;;;;4.40;3.10;;;;;;;;;;5077314;28;20044;-61
2021/08/17 11:24:11;;;;;;;6.85;3.38;;;;;;;;;;5093170;28;20044;-61
2021/08/17 11:26:38;;;;;;;7.07;3.35;;;;;;;;;;5092064;28;20048;-61
2021/08/17 11:29:04;;;;;;;6.13;3.20;;;;;;;;;;5092866;28;20063;-62
2021/08/17 11:31:31;;;;;;;3.83;2.80;;;;;;;;;;5092093;28;20406;-61
2021/08/17 11:34:12;;;;;;;6.50;3.08;;;;;;;;;;5091593;28;20446;-62
2021/08/17 11:36:39;;;;;;;7.35;3.30;;;;;;;;;;5093033;28;20105;-62
2021/08/17 11:39:25;;;;;;;6.30;3.25;;;;;;;;;;5093105;28;20110;-62
2021/08/17 11:41:52;;;;;;;4.30;3.22;;;;;;;;;;5087078;28;20056;-61
2021/08/17 11:44:19;;;;;;;5.20;3.05;;;;;;;;;;5092513;28;20067;-61
2021/08/17 11:46:45;;;;;;;7.50;3.33;;;;;;;;;;5092346;28;20047;-61
2021/08/17 11:49:21;;;;;;;4.75;3.05;;;;;;;;;;5092574;28;20113;-61
2021/08/17 11:51:48;;;;;;;6.32;3.00;;;;;;;;;;5092536;28;20040;-60
2021/08/17 11:54:15;;;;;;;4.30;2.90;;;;;;;;;;5092427;28;20083;-61
2021/08/17 11:56:42;;;;;;;4.10;2.80;;;;;;;;;;5093169;28;20845;-61
2021/08/17 11:59:08;;;;;;;7.03;2.75;;;;;;;;;;5092507;28;20048;-61
2021/08/17 12:01:34;;;;;;;4.35;2.95;;;;;;;;;;5092215;28;20071;-60
2021/08/17 12:04:07;;;;;;;4.47;2.58;;;;;;;;;;5091760;28;20051;-60
2021/08/17 12:06:34;;;;;;;4.30;2.83;;;;;;;;;;5092394;28;20040;-59
2021/08/17 12:09:19;;;;;;;6.00;3.00;;;;;;;;;;5092194;28;20665;-61
2021/08/17 12:11:56;;;;;;;4.95;2.22;;;;;;;;;;5092317;28;20452;-61
2021/08/17 12:14:23;;;;;;;6.13;2.63;;;;;;;;;;5092166;28;20410;-62
2021/08/17 12:16:53;;;;;;;3.67;2.55;;;;;;;;;;5092239;28;20044;-61
2021/08/17 12:19:19;;;;;;;6.20;2.85;;;;;;;;;;5092243;28;20036;-61
2021/08/17 12:21:46;;;;;;;5.05;2.83;;;;;;;;;;5092106;28;20083;-61
2021/08/17 12:24:21;;;;;;;5.90;2.60;;;;;;;;;;5090879;28;20040;-61
2021/08/17 12:27:04;;;;;;;3.65;2.22;;;;;;;;;;5092733;28;20075;-62
2021/08/17 12:29:40;;;;;;;15.57;2.58;;;;;;;;;;5092262;28;20455;-62
2021/08/17 12:32:17;;;;;;;4.35;2.78;;;;;;;;;;5091246;28;20120;-61
2021/08/17 12:34:48;;;;;;;4.75;2.60;;;;;;;;;;5071084;28;20048;-61
2021/08/17 12:37:29;;;;;;;3.80;2.42;;;;;;;;;;5092085;28;20072;-61
2021/08/17 12:39:57;;;;;;;5.72;2.47;;;;;;;;;;5092068;28;20040;-61
2021/08/17 12:42:23;;;;;;;5.75;2.70;;;;;;;;;;5075668;28;20075;-61
2021/08/17 12:44:50;;;;;;;3.53;2.13;;;;;;;;;;5088093;28;20403;-61
2021/08/17 12:47:23;;;;;;;5.63;2.42;;;;;;;;;;5091772;28;20048;-60
2021/08/17 12:49:54;;;;;;;4.55;3.00;;;;;;;;;;5091826;28;20044;-61
2021/08/17 12:52:21;;;;;;;7.47;2.60;;;;;;;;;;5091742;28;20040;-61
2021/08/17 12:54:48;;;;;;;4.88;3.28;;;;;;;;;;5091806;28;20388;-60
2021/08/17 12:57:21;;;;;;;3.53;2.58;;;;;;;;;;5091921;28;20094;-60
2021/08/17 12:59:48;;;;;;;4.67;2.67;;;;;;;;;;5092569;28;20114;-61
2021/08/17 13:02:14;;;;;;;6.63;2.78;;;;;;;;;;5091215;28;20060;-61
2021/08/17 13:04:41;;;;;;;5.28;2.50;;;;;;;;;;5091695;28;20070;-61
2021/08/17 13:07:07;;;;;;;5.15;2.75;;;;;;;;;;5091357;28;20044;-59
2021/08/17 13:09:34;;;;;;;3.30;2.35;;;;;;;;;;5091570;28;20177;-61
2021/08/17 13:12:01;;;;;;;7.70;2.70;;;;;;;;;;5091514;28;20525;-60
2021/08/17 13:14:27;;;;;;;4.20;2.75;;;;;;;;;;5086861;28;20056;-61
2021/08/17 13:16:53;;;;;;;5.13;2.78;;;;;;;;;;5091273;28;20090;-61
2021/08/17 13:19:20;;;;;;;6.65;2.70;;;;;;;;;;5094929;28;20463;-61
2021/08/17 13:21:46;;;;;;;3.97;2.92;;;;;;;;;;5095162;28;20065;-62
2021/08/17 13:24:13;;;;;;;3.83;2.40;;;;;;;;;;5095246;28;20043;-61
2021/08/17 13:26:39;;;;;;;4.88;2.55;;;;;;;;;;5078004;28;20044;-61
2021/08/17 13:29:06;;;;;;;6.80;2.60;;;;;;;;;;5095130;28;20048;-61
2021/08/17 13:31:32;;;;;;;3.85;2.72;;;;;;;;;;5094669;28;20399;-60
2021/08/17 13:33:59;;;;;;;4.18;2.40;;;;;;;;;;5083880;28;20047;-62
2021/08/17 13:36:25;;;;;;;6.22;2.42;;;;;;;;;;5095361;28;20036;-61
2021/08/17 13:38:54;;;;;;;8.73;4.07;;;;;;;;;;5095551;28;20093;-60
2021/08/17 13:41:21;;;;;;;5.05;2.92;;;;;;;;;;5095076;28;20076;-61
2021/08/17 13:43:47;;;;;;;4.22;2.40;;;;;;;;;;5094392;28;20060;-60
2021/08/17 13:46:13;;;;;;;4.57;2.42;;;;;;;;;;5093852;28;20040;-62
2021/08/17 13:48:39;;;;;;;4.85;2.45;;;;;;;;;;5093961;28;20487;-60
2021/08/17 13:51:06;;;;;;;5.43;2.22;;;;;;;;;;5094869;28;20040;-61
2021/08/17 13:53:33;;;;;;;4.10;2.70;;;;;;;;;;5086292;28;20040;-59
2021/08/17 13:56:00;;;;;;;12.13;3.20;;;;;;;;;;5091479;28;20467;-59
2021/08/17 13:58:26;;;;;;;5.18;2.47;;;;;;;;;;5090504;28;20044;-61
2021/08/17 14:00:52;;;;;;;3.22;2.30;;;;;;;;;;5094270;28;20044;-60
2021/08/17 14:03:20;;;;;;;4.00;2.67;;;;;;;;;;5092967;28;20105;-59
2021/08/17 14:05:49;;;;;;;6.07;2.67;;;;;;;;;;5093793;28;20044;-60
2021/08/17 14:08:16;;;;;;;6.10;2.80;;;;;;;;;;5093177;28;20056;-60
2021/08/17 14:10:43;;;;;;;4.45;3.00;;;;;;;;;;5092858;28;20530;-59
2021/08/17 14:13:09;;;;;;;4.03;2.67;;;;;;;;;;5088953;28;20624;-60
2021/08/17 14:15:35;;;;;;;4.47;2.60;;;;;;;;;;5076161;28;20052;-60
2021/08/17 14:18:01;;;;;;;5.45;2.78;;;;;;;;;;5087923;28;20071;-60
2021/08/17 14:20:28;;;;;;;5.03;3.00;;;;;;;;;;5089730;28;20079;-58
2021/08/17 14:22:54;;;;;;;6.88;2.47;;;;;;;;;;5093573;28;20509;-57
2021/08/17 14:25:21;;;;;;;5.35;3.08;;;;;;;;;;5064994;28;20068;-59
2021/08/17 14:27:47;;;;;;;7.35;3.40;;;;;;;;;;5081873;28;20432;-59
2021/08/17 14:30:13;;;;;;;4.95;2.60;;;;;;;;;;5062947;28;20514;-58
2021/08/17 14:32:40;;;;;;;4.72;2.70;;;;;;;;;;5092356;28;20089;-59
2021/08/17 14:35:06;;;;;;;5.90;2.97;;;;;;;;;;5083993;28;20102;-58
2021/08/17 14:37:32;;;;;;;4.30;2.40;;;;;;;;;;5087206;28;20131;-57
2021/08/17 14:39:59;;;;;;;4.97;2.60;;;;;;;;;;5093569;28;20052;-59
2021/08/17 14:42:25;;;;;;;5.63;2.83;;;;;;;;;;5089928;28;20073;-60
2021/08/17 14:44:51;;;;;;;5.20;2.30;;;;;;;;;;5092104;28;20048;-59